Time;durP1;ratioP1;P1;durP2;ratioP2;P2;SDS_P1;SDS_P2;PMS_P1;PMS_P2;Temp;Humidity;BMP_temperature;BMP_pressure;BME280_temperature;BME280_humidity;BME280_pressure;Samples;Min_cycle;Max_cycle;Signal;HPM_P1;HPM_P2
2023/01/30 00:00:37;;;;;;;31.77;16.30;;;4.60;99.90;;;;;;5065959;28;20203;-64
2023/01/30 00:03:05;;;;;;;33.83;16.73;;;4.60;99.90;;;;;;5067125;28;20207;-65
2023/01/30 00:05:32;;;;;;;35.97;16.30;;;4.60;99.90;;;;;;5072460;28;20204;-65
2023/01/30 00:07:59;;;;;;;33.33;18.03;;;4.60;99.90;;;;;;5064092;28;20204;-65
2023/01/30 00:10:26;;;;;;;27.30;16.20;;;4.70;99.90;;;;;;5069117;28;20219;-64
2023/01/30 00:12:53;;;;;;;28.83;16.83;;;4.60;99.90;;;;;;5074164;28;20623;-64
2023/01/30 00:15:20;;;;;;;31.10;16.57;;;4.60;99.90;;;;;;5072318;28;20235;-64
2023/01/30 00:17:46;;;;;;;33.00;17.53;;;4.70;99.90;;;;;;5070375;28;20211;-64
2023/01/30 00:20:14;;;;;;;39.60;16.93;;;4.70;99.90;;;;;;5066238;28;20207;-64
2023/01/30 00:22:41;;;;;;;32.17;16.33;;;4.70;99.90;;;;;;5070600;28;20203;-64
2023/01/30 00:25:08;;;;;;;29.77;16.47;;;4.70;99.90;;;;;;5038957;28;20228;-65
2023/01/30 00:27:35;;;;;;;30.60;15.37;;;4.70;99.90;;;;;;5067345;28;20199;-64
2023/01/30 00:30:04;;;;;;;25.60;16.60;;;4.70;99.90;;;;;;5076511;28;20204;-64
2023/01/30 00:32:31;;;;;;;26.50;16.47;;;4.80;99.90;;;;;;5079026;28;20231;-64
2023/01/30 00:34:58;;;;;;;36.23;16.30;;;4.80;99.90;;;;;;5072547;28;20214;-64
2023/01/30 00:37:26;;;;;;;27.90;16.83;;;4.80;99.90;;;;;;5048159;28;20234;-64
2023/01/30 00:39:53;;;;;;;25.97;15.10;;;4.90;99.90;;;;;;5070907;28;20200;-65
2023/01/30 00:47:49;;;;;;;31.70;15.93;;;5.00;99.90;;;;;;5077464;28;20198;-64
2023/01/30 00:50:16;;;;;;;31.70;17.00;;;4.90;99.90;;;;;;5079100;28;21570;-65
2023/01/30 00:52:44;;;;;;;28.80;16.23;;;5.00;99.90;;;;;;5070275;28;20199;-64
2023/01/30 00:55:11;;;;;;;34.03;16.17;;;5.00;99.90;;;;;;5064081;28;20790;-64
2023/01/30 00:57:38;;;;;;;28.53;15.67;;;5.00;99.90;;;;;;5048382;28;20720;-64
2023/01/30 01:00:07;;;;;;;28.10;16.33;;;5.10;99.90;;;;;;5068110;27;20668;-65
2023/01/30 01:02:34;;;;;;;32.50;15.73;;;5.10;99.90;;;;;;5073401;28;20203;-65
2023/01/30 01:05:01;;;;;;;30.97;17.30;;;5.20;99.90;;;;;;5089252;27;20232;-65
2023/01/30 01:07:28;;;;;;;32.13;16.60;;;5.20;99.90;;;;;;5071763;27;20206;-65
2023/01/30 01:09:56;;;;;;;32.13;15.23;;;5.30;99.90;;;;;;5083329;27;20207;-65
2023/01/30 01:12:23;;;;;;;28.77;16.17;;;5.30;99.90;;;;;;5049005;28;20196;-64
2023/01/30 01:14:50;;;;;;;29.27;16.37;;;5.30;99.90;;;;;;5072714;27;20227;-65
2023/01/30 01:17:17;;;;;;;24.57;15.87;;;5.30;99.90;;;;;;5067546;28;20212;-64
2023/01/30 01:19:43;;;;;;;30.57;15.27;;;5.30;99.90;;;;;;5080572;28;20194;-65
2023/01/30 01:22:10;;;;;;;31.60;16.03;;;5.50;99.90;;;;;;5072354;27;20207;-65
2023/01/30 01:24:37;;;;;;;29.00;15.17;;;5.30;99.90;;;;;;5078463;28;20469;-64
2023/01/30 01:27:05;;;;;;;26.37;15.87;;;5.40;99.90;;;;;;5038876;28;20219;-64
2023/01/30 01:29:32;;;;;;;31.30;16.10;;;5.30;99.90;;;;;;5067489;28;20831;-64
2023/01/30 01:31:58;;;;;;;28.73;15.63;;;5.30;99.90;;;;;;5071429;27;20209;-65
2023/01/30 01:34:25;;;;;;;24.97;15.50;;;5.40;99.90;;;;;;5084393;27;20196;-65
2023/01/30 01:36:52;;;;;;;27.57;15.80;;;5.30;99.90;;;;;;5085143;27;20204;-65
2023/01/30 01:39:19;;;;;;;31.00;15.70;;;5.30;99.90;;;;;;5065143;28;20214;-65
2023/01/30 01:41:45;;;;;;;23.57;14.10;;;5.30;99.90;;;;;;5081178;28;20204;-65
2023/01/30 01:44:15;;;;;;;25.83;14.93;;;5.40;99.90;;;;;;5053926;28;20230;-64
2023/01/30 01:46:46;;;;;;;31.87;15.77;;;5.40;99.90;;;;;;5077968;27;20218;-65
2023/01/30 01:49:16;;;;;;;24.93;15.23;;;5.40;99.90;;;;;;5067374;27;20563;-65
2023/01/30 01:51:50;;;;;;;29.20;15.77;;;5.40;99.90;;;;;;5082516;27;20669;-65
2023/01/30 01:54:23;;;;;;;24.70;14.17;;;5.30;99.90;;;;;;5057045;27;20204;-64
2023/01/30 01:56:50;;;;;;;27.33;16.57;;;5.30;99.90;;;;;;5075362;27;20591;-64
2023/01/30 01:59:24;;;;;;;24.77;14.53;;;5.40;99.90;;;;;;5050402;28;20250;-65
2023/01/30 02:01:55;;;;;;;24.03;15.03;;;5.40;99.90;;;;;;5065222;28;20200;-65
2023/01/30 02:07:03;;;;;;;24.60;13.70;;;5.50;99.90;;;;;;5080110;28;20207;-65
2023/01/30 02:09:30;;;;;;;23.83;14.33;;;5.40;99.90;;;;;;5068394;27;20199;-65
2023/01/30 02:12:00;;;;;;;21.40;13.87;;;5.50;99.90;;;;;;5083337;28;20223;-65
2023/01/30 02:14:30;;;;;;;21.87;13.50;;;5.50;99.90;;;;;;5057107;28;20653;-65
2023/01/30 02:16:56;;;;;;;27.57;14.27;;;5.50;99.90;;;;;;5083326;27;20669;-65
2023/01/30 02:19:33;;;;;;;25.87;14.20;;;5.50;99.90;;;;;;5054992;28;20334;-65
2023/01/30 02:22:35;;;;;;;20.97;12.17;;;5.50;99.90;;;;;;5072273;27;20200;-65
2023/01/30 02:25:27;;;;;;;21.67;12.57;;;5.50;99.90;;;;;;5069044;27;20609;-65
2023/01/30 02:28:33;;;;;;;24.47;12.47;;;5.50;99.90;;;;;;5069393;28;20200;-65
2023/01/30 02:31:20;;;;;;;23.47;11.93;;;5.60;99.90;;;;;;5047150;27;20214;-66
2023/01/30 02:33:57;;;;;;;18.43;11.87;;;5.60;99.90;;;;;;5072986;27;20220;-66
2023/01/30 02:36:36;;;;;;;21.67;12.07;;;5.70;99.90;;;;;;5079495;28;21075;-65
2023/01/30 02:39:08;;;;;;;17.13;11.17;;;5.60;99.90;;;;;;5078754;27;20192;-65
2023/01/30 02:41:52;;;;;;;20.33;10.37;;;5.70;99.90;;;;;;5072982;28;20200;-65
2023/01/30 02:44:26;;;;;;;19.43;10.50;;;5.80;99.90;;;;;;5040149;27;20223;-66
2023/01/30 02:47:00;;;;;;;19.27;10.30;;;5.70;99.90;;;;;;5060744;28;21692;-66
2023/01/30 02:49:32;;;;;;;17.37;10.67;;;5.70;99.90;;;;;;5051102;28;20204;-66
2023/01/30 02:52:01;;;;;;;15.63;9.10;;;5.80;99.90;;;;;;5079030;28;20200;-66
2023/01/30 02:54:27;;;;;;;18.23;10.33;;;5.80;99.90;;;;;;5081107;28;20238;-66
2023/01/30 02:56:57;;;;;;;18.37;9.50;;;5.80;99.90;;;;;;5072268;28;20210;-66
2023/01/30 02:59:30;;;;;;;11.57;8.40;;;5.80;99.90;;;;;;5068578;28;20367;-66
2023/01/30 03:02:32;;;;;;;13.77;8.40;;;5.80;99.90;;;;;;5040123;28;20733;-66
2023/01/30 03:05:20;;;;;;;13.13;8.77;;;5.80;99.90;;;;;;5069482;28;20227;-66
2023/01/30 03:07:55;;;;;;;12.63;7.73;;;5.90;99.90;;;;;;5068465;28;20207;-66
2023/01/30 03:10:36;;;;;;;13.73;8.37;;;5.90;99.90;;;;;;5082474;28;20762;-66
2023/01/30 03:13:10;;;;;;;10.60;7.13;;;6.00;99.90;;;;;;5062035;28;20195;-67
2023/01/30 03:15:41;;;;;;;10.73;7.10;;;5.90;99.90;;;;;;5070755;27;20486;-66
2023/01/30 03:18:10;;;;;;;16.67;7.53;;;6.00;99.90;;;;;;5040019;27;20230;-66
2023/01/30 03:20:37;;;;;;;11.10;6.77;;;5.90;99.90;;;;;;5071559;28;20200;-67
2023/01/30 03:23:04;;;;;;;9.90;6.60;;;5.90;99.90;;;;;;5070754;27;20206;-66
2023/01/30 03:25:32;;;;;;;9.57;6.50;;;6.00;99.90;;;;;;5087360;27;20593;-67
2023/01/30 03:27:59;;;;;;;10.93;7.10;;;6.00;99.90;;;;;;5066710;28;20207;-66
2023/01/30 03:30:26;;;;;;;10.67;7.03;;;6.10;99.90;;;;;;5076539;27;20207;-67
2023/01/30 03:32:53;;;;;;;7.80;5.80;;;6.10;99.90;;;;;;5049473;28;20196;-67
2023/01/30 03:35:21;;;;;;;9.53;5.80;;;6.10;99.90;;;;;;5068976;28;21048;-67
2023/01/30 03:37:48;;;;;;;8.43;5.87;;;6.10;99.90;;;;;;5082514;28;20198;-67
2023/01/30 03:40:17;;;;;;;9.57;5.83;;;6.10;99.90;;;;;;5068516;28;20230;-67
2023/01/30 03:42:44;;;;;;;5.63;3.47;;;6.20;99.90;;;;;;5062301;28;20219;-66
2023/01/30 03:45:12;;;;;;;5.77;4.50;;;6.10;99.90;;;;;;5068349;27;20258;-67
2023/01/30 03:47:38;;;;;;;4.10;2.77;;;6.20;99.90;;;;;;5046203;28;20223;-67
2023/01/30 03:50:06;;;;;;;3.00;1.60;;;6.20;99.90;;;;;;5067127;28;20209;-68
2023/01/30 03:52:36;;;;;;;2.43;1.27;;;6.20;99.90;;;;;;5078966;28;20199;-67
2023/01/30 03:55:03;;;;;;;3.87;1.90;;;6.20;99.90;;;;;;5074839;28;20205;-66
2023/01/30 03:57:30;;;;;;;2.13;1.33;;;6.10;99.90;;;;;;5066578;27;20212;-67
2023/01/30 03:59:57;;;;;;;2.17;0.90;;;6.10;99.90;;;;;;5083525;28;20219;-67
2023/01/30 04:02:25;;;;;;;2.83;1.20;;;6.20;99.90;;;;;;5040681;28;20222;-67
2023/01/30 04:04:52;;;;;;;4.37;1.00;;;6.10;99.90;;;;;;5079436;28;20220;-67
2023/01/30 04:07:18;;;;;;;2.30;0.93;;;6.10;99.90;;;;;;5066762;28;20695;-67
2023/01/30 04:09:46;;;;;;;3.93;1.40;;;6.10;99.90;;;;;;5057846;28;20207;-67
2023/01/30 04:12:13;;;;;;;3.53;1.70;;;6.00;99.90;;;;;;5085997;28;20203;-67
2023/01/30 04:14:40;;;;;;;4.60;1.00;;;6.00;99.90;;;;;;5063746;28;20222;-67
2023/01/30 04:17:07;;;;;;;6.87;1.07;;;6.00;99.90;;;;;;5067366;28;20203;-67
2023/01/30 04:19:34;;;;;;;5.40;1.00;;;6.00;99.90;;;;;;5051336;28;20226;-67
2023/01/30 04:22:00;;;;;;;5.90;1.00;;;6.00;99.90;;;;;;5069676;28;20204;-67
2023/01/30 04:24:27;;;;;;;5.07;1.00;;;5.90;99.90;;;;;;5064700;28;20781;-66
2023/01/30 04:26:55;;;;;;;5.87;0.83;;;6.00;99.90;;;;;;5073526;28;20954;-67
2023/01/30 04:29:22;;;;;;;2.43;1.03;;;6.00;99.90;;;;;;5064793;28;20593;-67
2023/01/30 04:31:49;;;;;;;2.90;1.43;;;6.00;99.90;;;;;;5053308;28;20898;-67
2023/01/30 04:34:15;;;;;;;3.87;0.67;;;6.00;99.90;;;;;;5041264;28;20226;-67
2023/01/30 04:36:42;;;;;;;3.57;1.40;;;6.00;99.90;;;;;;5067923;28;20575;-67
2023/01/30 04:39:09;;;;;;;5.07;1.77;;;6.00;99.90;;;;;;5072198;28;20199;-67
2023/01/30 04:41:36;;;;;;;2.20;1.23;;;5.90;99.90;;;;;;5077681;28;20203;-67
2023/01/30 04:44:04;;;;;;;7.23;0.93;;;5.90;99.90;;;;;;5078339;28;20200;-67
2023/01/30 04:46:31;;;;;;;2.80;1.03;;;5.80;99.90;;;;;;5078836;27;20246;-67
2023/01/30 04:48:58;;;;;;;9.37;1.40;;;5.90;99.90;;;;;;5079422;28;20200;-67
2023/01/30 04:51:24;;;;;;;1.37;0.73;;;5.80;99.90;;;;;;5054500;28;20209;-66
2023/01/30 04:53:51;;;;;;;4.03;1.43;;;5.80;99.90;;;;;;5052176;27;20348;-67
2023/01/30 04:56:18;;;;;;;3.00;1.17;;;5.80;99.90;;;;;;5050209;27;20592;-67
2023/01/30 04:58:45;;;;;;;5.10;1.17;;;5.70;99.90;;;;;;5072774;27;20276;-67
2023/01/30 05:01:20;;;;;;;3.03;0.93;;;5.70;99.90;;;;;;5066709;28;20211;-67
2023/01/30 05:03:50;;;;;;;1.80;0.87;;;5.90;99.90;;;;;;5079565;28;20191;-67
2023/01/30 05:06:17;;;;;;;3.13;0.83;;;5.70;99.90;;;;;;5046537;28;20330;-67
2023/01/30 05:08:44;;;;;;;6.80;1.70;;;5.70;99.90;;;;;;5050564;28;20231;-67
2023/01/30 05:11:11;;;;;;;10.37;1.40;;;5.80;99.90;;;;;;5079559;27;20199;-67
2023/01/30 05:13:37;;;;;;;12.63;1.20;;;5.80;99.90;;;;;;5075117;28;20227;-67
2023/01/30 05:16:05;;;;;;;7.07;1.60;;;5.80;99.90;;;;;;5070967;27;20203;-67
2023/01/30 05:18:33;;;;;;;10.80;1.83;;;5.80;99.90;;;;;;5081636;28;20692;-66
2023/01/30 05:21:05;;;;;;;11.07;2.00;;;5.80;99.90;;;;;;5079416;28;20253;-67
2023/01/30 05:23:32;;;;;;;10.70;2.33;;;5.90;99.90;;;;;;5024045;28;21169;-67
2023/01/30 05:25:59;;;;;;;14.50;2.17;;;5.90;99.90;;;;;;5076543;28;20232;-67
2023/01/30 05:28:26;;;;;;;13.77;2.90;;;5.90;99.90;;;;;;5065291;28;20273;-67
2023/01/30 05:30:53;;;;;;;19.37;2.83;;;6.00;99.90;;;;;;5052300;28;20226;-67
2023/01/30 05:33:19;;;;;;;14.23;3.73;;;6.00;99.90;;;;;;5071159;28;20210;-67
2023/01/30 05:35:49;;;;;;;13.23;3.13;;;6.00;99.90;;;;;;5074802;28;20199;-67
2023/01/30 05:38:16;;;;;;;15.13;2.70;;;5.80;99.90;;;;;;5033282;28;20211;-67
2023/01/30 05:40:43;;;;;;;17.90;3.80;;;5.80;99.90;;;;;;5053876;27;20211;-67
2023/01/30 05:43:09;;;;;;;12.87;2.53;;;5.80;99.90;;;;;;5065149;27;20815;-67
2023/01/30 05:45:36;;;;;;;17.70;4.20;;;5.80;99.90;;;;;;5054072;27;20262;-66
2023/01/30 05:48:03;;;;;;;17.97;3.40;;;5.70;99.90;;;;;;5071860;27;20549;-67
2023/01/30 05:50:31;;;;;;;7.93;2.23;;;5.60;99.90;;;;;;5067090;28;20204;-67
2023/01/30 05:52:59;;;;;;;11.87;2.90;;;5.50;99.90;;;;;;5051297;28;20668;-67
2023/01/30 05:55:26;;;;;;;9.13;2.87;;;5.60;99.90;;;;;;5065596;27;20198;-67
2023/01/30 05:57:52;;;;;;;12.83;3.33;;;5.50;99.90;;;;;;5067370;27;20817;-67
2023/01/30 06:00:20;;;;;;;29.60;4.70;;;5.50;99.90;;;;;;5061615;28;20227;-67
2023/01/30 06:02:47;;;;;;;21.70;4.40;;;5.60;99.90;;;;;;5068026;28;20204;-67
2023/01/30 06:05:14;;;;;;;17.57;3.53;;;5.50;99.90;;;;;;5073833;28;20228;-67
2023/01/30 06:07:40;;;;;;;22.10;3.73;;;5.50;99.90;;;;;;5062493;28;20224;-67
2023/01/30 06:10:10;;;;;;;25.27;4.13;;;5.40;99.90;;;;;;5021404;28;20215;-67
2023/01/30 06:12:37;;;;;;;16.90;3.27;;;5.40;99.90;;;;;;5067334;28;21194;-67
2023/01/30 06:15:04;;;;;;;17.27;2.83;;;5.30;99.90;;;;;;5080681;27;20208;-67
2023/01/30 06:17:31;;;;;;;22.40;3.33;;;5.40;99.90;;;;;;5050498;28;21316;-67
2023/01/30 06:19:57;;;;;;;20.70;3.93;;;5.40;99.90;;;;;;5066865;28;20227;-67
2023/01/30 06:22:24;;;;;;;18.00;3.03;;;5.40;99.90;;;;;;5071574;28;20200;-67
2023/01/30 06:24:51;;;;;;;14.43;2.97;;;5.40;99.90;;;;;;5034281;27;20231;-67
2023/01/30 06:27:19;;;;;;;21.03;4.23;;;5.50;99.90;;;;;;5067040;28;20223;-67
2023/01/30 06:29:46;;;;;;;19.37;4.10;;;5.40;99.90;;;;;;5071845;28;20211;-67
2023/01/30 06:32:13;;;;;;;17.67;3.17;;;5.50;99.90;;;;;;5064440;27;20227;-66
2023/01/30 06:34:40;;;;;;;22.17;3.23;;;5.50;99.90;;;;;;5072979;27;20199;-67
2023/01/30 06:37:07;;;;;;;20.10;3.47;;;5.40;99.90;;;;;;5083022;28;20210;-66
2023/01/30 06:39:34;;;;;;;16.83;3.87;;;5.50;99.90;;;;;;5047464;27;20203;-67
2023/01/30 06:42:00;;;;;;;22.03;3.60;;;5.50;99.90;;;;;;5068887;28;20208;-66
2023/01/30 06:44:28;;;;;;;27.83;3.63;;;5.50;99.90;;;;;;5073226;27;20204;-67
2023/01/30 06:46:55;;;;;;;15.67;3.60;;;5.60;99.90;;;;;;5084103;27;21098;-65
2023/01/30 06:49:22;;;;;;;22.83;4.03;;;5.50;99.90;;;;;;5055180;27;20220;-66
2023/01/30 06:51:49;;;;;;;14.47;3.50;;;5.50;99.90;;;;;;5083331;27;20193;-67
2023/01/30 06:54:15;;;;;;;22.77;3.90;;;5.50;99.90;;;;;;5082310;28;20860;-66
2023/01/30 06:56:42;;;;;;;23.10;3.87;;;5.50;99.90;;;;;;5050283;28;20697;-66
2023/01/30 06:59:09;;;;;;;25.63;5.00;;;5.50;99.90;;;;;;5067188;28;20211;-66
2023/01/30 07:01:38;;;;;;;23.67;3.20;;;5.50;99.90;;;;;;5063415;28;20234;-67
2023/01/30 07:04:05;;;;;;;15.17;2.73;;;5.50;99.90;;;;;;5073861;28;20314;-67
2023/01/30 07:06:31;;;;;;;23.00;3.87;;;5.40;99.90;;;;;;5053074;28;20232;-67
2023/01/30 07:08:58;;;;;;;37.07;4.43;;;5.50;99.90;;;;;;5063602;28;20223;-67
2023/01/30 07:11:25;;;;;;;13.50;3.23;;;5.50;99.90;;;;;;5042798;27;21005;-67
2023/01/30 07:13:52;;;;;;;19.70;3.63;;;5.50;99.90;;;;;;5059630;27;20223;-67
2023/01/30 07:16:28;;;;;;;16.00;2.90;;;5.50;99.90;;;;;;5027582;27;20622;-66
2023/01/30 07:18:56;;;;;;;19.80;3.10;;;5.60;99.90;;;;;;5028201;28;20251;-66
2023/01/30 07:21:23;;;;;;;21.27;2.93;;;5.60;99.90;;;;;;5027144;28;20228;-66
2023/01/30 07:23:50;;;;;;;19.53;3.07;;;5.60;99.90;;;;;;5039689;28;20221;-67
2023/01/30 07:26:16;;;;;;;25.17;4.30;;;5.50;99.90;;;;;;5011463;28;20219;-69
2023/01/30 07:28:43;;;;;;;21.90;3.70;;;5.50;99.90;;;;;;5028171;28;20205;-65
2023/01/30 07:31:10;;;;;;;21.47;3.03;;;5.60;99.90;;;;;;5011579;28;20205;-66
2023/01/30 07:33:38;;;;;;;20.97;2.70;;;5.60;99.90;;;;;;5027933;28;20208;-66
2023/01/30 07:36:05;;;;;;;12.67;2.73;;;5.60;99.90;;;;;;5025746;28;21025;-66
2023/01/30 07:38:32;;;;;;;14.20;2.83;;;5.60;99.90;;;;;;5038868;28;21346;-66
2023/01/30 07:40:59;;;;;;;15.07;3.57;;;5.60;99.90;;;;;;5033544;28;20199;-69
2023/01/30 07:43:26;;;;;;;21.60;3.20;;;5.60;99.90;;;;;;5006498;28;20211;-66
2023/01/30 07:45:52;;;;;;;14.37;3.17;;;5.60;99.90;;;;;;5031767;28;20212;-68
2023/01/30 07:48:20;;;;;;;17.90;3.17;;;5.60;99.90;;;;;;5016252;28;20216;-67
2023/01/30 07:50:48;;;;;;;13.50;3.30;;;5.60;99.90;;;;;;5028646;28;20583;-66
2023/01/30 07:53:17;;;;;;;20.57;3.33;;;5.60;99.90;;;;;;5035419;28;20207;-66
2023/01/30 07:55:44;;;;;;;19.23;2.60;;;5.60;99.90;;;;;;5040571;28;20222;-68
2023/01/30 07:58:13;;;;;;;18.40;3.10;;;5.60;99.90;;;;;;5007668;28;20577;-68
2023/01/30 08:00:40;;;;;;;17.20;2.87;;;5.70;99.90;;;;;;5015126;28;20292;-67
2023/01/30 08:03:06;;;;;;;13.57;2.60;;;5.70;99.90;;;;;;5026621;28;20262;-66
2023/01/30 08:05:34;;;;;;;16.33;3.60;;;5.70;99.90;;;;;;4998339;28;20228;-68
2023/01/30 08:08:02;;;;;;;14.90;3.07;;;5.70;99.90;;;;;;5037544;28;20199;-68
2023/01/30 08:10:29;;;;;;;18.10;3.20;;;5.70;99.90;;;;;;5022186;28;20204;-68
2023/01/30 08:12:55;;;;;;;11.77;2.77;;;5.70;99.90;;;;;;5004743;28;20209;-67
2023/01/30 08:15:22;;;;;;;22.40;2.97;;;5.80;99.90;;;;;;5028650;28;20231;-66
2023/01/30 08:17:54;;;;;;;13.10;2.63;;;5.80;99.90;;;;;;5018221;28;20235;-66
2023/01/30 08:20:21;;;;;;;17.30;3.00;;;5.80;99.90;;;;;;5027453;28;20213;-66
2023/01/30 08:22:48;;;;;;;17.07;3.20;;;5.70;99.90;;;;;;5024441;28;20228;-66
2023/01/30 08:25:16;;;;;;;23.47;3.53;;;5.80;99.90;;;;;;5027565;28;20204;-67
2023/01/30 08:27:43;;;;;;;21.30;3.57;;;5.80;99.90;;;;;;4989512;28;20702;-68
2023/01/30 08:30:11;;;;;;;17.30;3.03;;;5.80;99.90;;;;;;5011013;28;20208;-68
2023/01/30 08:32:38;;;;;;;17.90;3.37;;;5.80;99.90;;;;;;5011664;28;20228;-66
2023/01/30 08:35:05;;;;;;;19.43;3.60;;;5.80;99.90;;;;;;5010026;28;20236;-66
2023/01/30 08:37:32;;;;;;;23.30;3.67;;;5.80;99.90;;;;;;5006831;28;20205;-66
2023/01/30 08:39:58;;;;;;;14.07;3.27;;;5.90;99.90;;;;;;5006283;28;20206;-67
2023/01/30 08:42:27;;;;;;;24.27;2.97;;;5.90;99.90;;;;;;5027440;28;20198;-66
2023/01/30 08:44:53;;;;;;;15.27;3.57;;;6.00;99.90;;;;;;4997400;28;20224;-66
2023/01/30 08:47:20;;;;;;;29.13;3.73;;;5.90;99.90;;;;;;4997215;28;20208;-68
2023/01/30 08:49:47;;;;;;;17.10;3.50;;;6.00;99.90;;;;;;5004945;28;20682;-66
2023/01/30 08:52:14;;;;;;;20.17;3.40;;;5.90;99.90;;;;;;5006342;28;20796;-66
2023/01/30 08:54:41;;;;;;;21.17;3.63;;;5.90;99.90;;;;;;5027119;28;20195;-65
2023/01/30 08:57:08;;;;;;;16.83;3.17;;;5.90;99.90;;;;;;5009165;28;20219;-66
2023/01/30 08:59:36;;;;;;;21.83;4.07;;;6.00;99.90;;;;;;4992782;28;20222;-66
2023/01/30 09:02:03;;;;;;;24.23;3.57;;;6.00;99.90;;;;;;5002434;28;21355;-66
2023/01/30 09:07:03;;;;;;;26.33;4.23;;;6.00;99.90;;;;;;4941043;23;21126;-66
2023/01/30 09:09:30;;;;;;;12.57;2.73;;;6.00;99.90;;;;;;4916402;28;21603;-67
2023/01/30 09:11:57;;;;;;;19.37;3.37;;;6.00;99.90;;;;;;4936826;28;20350;-67
2023/01/30 09:14:24;;;;;;;16.57;2.77;;;6.00;99.90;;;;;;4939417;23;20246;-66
2023/01/30 09:16:54;;;;;;;21.70;3.83;;;6.00;99.90;;;;;;4935653;28;21473;-66
2023/01/30 09:19:21;;;;;;;11.57;2.67;;;6.00;99.90;;;;;;4981055;28;20268;-70
2023/01/30 09:21:49;;;;;;;22.90;3.53;;;6.10;99.90;;;;;;4951816;28;20207;-66
2023/01/30 09:24:15;;;;;;;14.77;3.00;;;6.10;99.90;;;;;;4973067;28;20215;-66
2023/01/30 09:26:44;;;;;;;10.93;3.23;;;6.30;99.90;;;;;;4957244;28;20233;-66
2023/01/30 09:29:10;;;;;;;25.17;3.50;;;6.30;99.90;;;;;;4986700;28;20223;-66
2023/01/30 09:31:37;;;;;;;5.97;2.70;;;6.30;99.90;;;;;;4934220;28;20222;-66
2023/01/30 09:34:06;;;;;;;19.67;3.07;;;6.30;99.90;;;;;;4960795;28;20357;-66
2023/01/30 09:36:32;;;;;;;11.40;3.23;;;6.40;99.90;;;;;;4975589;28;20241;-66
2023/01/30 09:38:59;;;;;;;11.03;2.43;;;6.40;99.90;;;;;;4961902;28;20696;-66
2023/01/30 09:41:45;;;;;;;19.97;3.70;;;6.40;99.90;;;;;;4965746;28;20226;-65
2023/01/30 09:44:43;;;;;;;18.33;3.17;;;6.40;99.90;;;;;;4975458;28;20202;-66
2023/01/30 09:47:12;;;;;;;19.27;3.23;;;6.30;99.90;;;;;;4979111;28;20211;-66
2023/01/30 09:49:48;;;;;;;22.50;3.80;;;6.40;99.90;;;;;;4960207;28;20206;-66
2023/01/30 09:52:25;;;;;;;17.47;3.27;;;6.30;99.90;;;;;;4982042;28;20794;-66
2023/01/30 09:54:55;;;;;;;22.13;3.20;;;6.30;99.90;;;;;;4956870;28;20225;-66
2023/01/30 09:57:24;;;;;;;18.20;2.50;;;6.40;99.90;;;;;;4985081;28;20589;-66
2023/01/30 09:59:57;;;;;;;10.83;2.73;;;6.30;99.90;;;;;;4932538;28;20919;-66
2023/01/30 10:02:42;;;;;;;11.10;2.33;;;6.30;99.90;;;;;;4982531;28;20210;-65
2023/01/30 10:05:10;;;;;;;17.37;3.10;;;6.40;99.90;;;;;;4956065;28;20214;-66
2023/01/30 10:07:56;;;;;;;18.70;3.27;;;6.40;99.90;;;;;;4977962;28;20199;-66
2023/01/30 10:10:37;;;;;;;11.43;2.70;;;6.50;99.90;;;;;;4952117;28;20240;-66
2023/01/30 10:13:12;;;;;;;19.17;3.37;;;6.60;99.90;;;;;;4961224;28;20244;-66
2023/01/30 10:15:51;;;;;;;12.97;2.63;;;6.60;99.90;;;;;;4955871;28;21034;-66
2023/01/30 10:18:52;;;;;;;10.57;2.53;;;6.50;99.90;;;;;;4981500;28;20571;-67
2023/01/30 10:21:29;;;;;;;15.67;3.17;;;6.50;99.90;;;;;;4911061;28;20212;-66
2023/01/30 10:24:09;;;;;;;17.50;2.70;;;6.50;99.90;;;;;;4965882;28;20206;-66
2023/01/30 10:26:39;;;;;;;7.60;2.00;;;6.30;99.90;;;;;;4960143;28;20214;-65
2023/01/30 10:29:12;;;;;;;12.13;2.50;;;6.00;99.90;;;;;;4970983;28;20673;-66
2023/01/30 10:31:44;;;;;;;18.53;3.67;;;6.00;99.90;;;;;;4947477;28;20203;-66
2023/01/30 10:34:15;;;;;;;18.47;3.43;;;6.00;99.90;;;;;;4979823;28;20222;-66
2023/01/30 10:36:50;;;;;;;21.57;4.33;;;6.00;99.90;;;;;;4962672;28;20237;-66
2023/01/30 10:39:25;;;;;;;19.73;3.57;;;6.10;99.90;;;;;;4981827;28;20266;-66
2023/01/30 10:41:58;;;;;;;16.77;3.17;;;6.20;99.90;;;;;;4952569;28;20681;-66
2023/01/30 10:44:25;;;;;;;12.70;2.73;;;6.10;99.90;;;;;;4968853;28;20241;-66
2023/01/30 10:47:14;;;;;;;14.33;3.97;;;6.10;99.90;;;;;;4948440;28;20207;-66
2023/01/30 10:49:44;;;;;;;18.73;2.50;;;6.10;99.90;;;;;;4977626;28;20206;-67
2023/01/30 10:52:25;;;;;;;14.83;2.87;;;6.00;99.90;;;;;;4966726;28;20234;-67
2023/01/30 10:55:03;;;;;;;17.53;3.03;;;5.90;99.90;;;;;;4955272;28;20280;-66
2023/01/30 10:57:42;;;;;;;9.57;2.57;;;6.00;99.90;;;;;;4970839;28;20234;-66
2023/01/30 11:00:20;;;;;;;9.13;2.17;;;5.90;99.90;;;;;;4968207;28;20206;-66
2023/01/30 11:02:58;;;;;;;12.93;2.33;;;5.90;99.90;;;;;;4944057;28;20238;-66
2023/01/30 11:05:30;;;;;;;16.60;2.77;;;6.00;99.90;;;;;;4976483;28;20204;-66
2023/01/30 11:07:58;;;;;;;12.20;2.60;;;6.10;99.90;;;;;;4956140;28;20245;-66
2023/01/30 11:10:27;;;;;;;11.50;3.27;;;6.10;99.90;;;;;;4981331;28;20219;-66
2023/01/30 11:12:58;;;;;;;8.10;2.43;;;6.20;99.90;;;;;;4957019;28;20199;-67
2023/01/30 11:15:24;;;;;;;15.80;3.77;;;6.20;99.90;;;;;;4980041;28;20238;-66
2023/01/30 11:18:03;;;;;;;14.93;3.17;;;6.30;99.90;;;;;;4934728;28;20930;-66
2023/01/30 11:20:30;;;;;;;18.00;3.87;;;6.40;99.90;;;;;;4980588;28;20222;-66
2023/01/30 11:23:05;;;;;;;21.50;3.20;;;6.60;99.90;;;;;;4968949;28;21697;-66
2023/01/30 11:25:48;;;;;;;10.10;2.47;;;6.60;99.90;;;;;;4956782;28;20241;-66
2023/01/30 11:28:16;;;;;;;17.83;3.57;;;6.60;99.90;;;;;;4965738;28;20231;-66
2023/01/30 11:30:44;;;;;;;19.07;3.50;;;6.50;99.90;;;;;;4968907;28;20333;-66
2023/01/30 11:33:14;;;;;;;14.60;3.40;;;6.50;99.90;;;;;;4930456;28;20236;-66
2023/01/30 11:35:53;;;;;;;11.23;2.30;;;6.20;99.90;;;;;;4980340;28;20231;-66
2023/01/30 11:38:25;;;;;;;10.23;2.27;;;5.90;99.90;;;;;;4968172;28;20712;-67
2023/01/30 11:41:06;;;;;;;11.43;2.33;;;5.90;99.90;;;;;;4964243;28;20229;-66
2023/01/30 11:43:35;;;;;;;14.93;3.23;;;5.90;99.90;;;;;;4964258;28;21149;-66
2023/01/30 11:46:03;;;;;;;7.77;2.83;;;5.90;99.90;;;;;;4976764;28;20326;-66
2023/01/30 11:48:32;;;;;;;28.20;3.43;;;6.00;99.90;;;;;;4926061;28;20324;-66
2023/01/30 11:51:03;;;;;;;17.13;3.27;;;6.10;99.90;;;;;;4963322;28;20689;-66
2023/01/30 11:53:36;;;;;;;14.60;2.63;;;6.20;99.90;;;;;;4946482;28;20210;-66
2023/01/30 11:56:08;;;;;;;16.03;3.13;;;6.30;99.90;;;;;;4947468;28;20720;-66
2023/01/30 11:58:39;;;;;;;16.03;3.03;;;6.50;99.90;;;;;;4958627;28;20296;-66
2023/01/30 12:01:09;;;;;;;16.67;3.77;;;6.80;99.90;;;;;;4980854;28;20206;-67
2023/01/30 12:03:44;;;;;;;22.57;3.13;;;6.80;99.90;;;;;;4932995;28;20214;-67
2023/01/30 12:06:11;;;;;;;9.10;2.00;;;6.90;99.90;;;;;;4965981;28;20586;-67
2023/01/30 12:08:43;;;;;;;20.20;4.20;;;6.90;99.90;;;;;;4950031;28;20704;-67
2023/01/30 12:11:26;;;;;;;18.90;3.40;;;6.90;99.90;;;;;;4968800;28;20227;-66
2023/01/30 12:13:55;;;;;;;24.43;3.73;;;6.90;99.90;;;;;;4973800;28;20242;-66
2023/01/30 12:16:24;;;;;;;14.70;3.13;;;6.90;99.90;;;;;;4986977;28;20598;-66
2023/01/30 12:19:00;;;;;;;20.87;3.47;;;6.80;99.90;;;;;;4969921;28;20234;-66
2023/01/30 12:21:35;;;;;;;8.37;1.97;;;6.50;99.90;;;;;;4952451;28;20220;-66
2023/01/30 12:24:13;;;;;;;3.30;1.20;;;6.40;99.90;;;;;;4963972;28;20699;-66
2023/01/30 12:26:46;;;;;;;5.50;1.57;;;6.50;99.90;;;;;;4962172;28;20218;-66
2023/01/30 12:29:24;;;;;;;6.37;1.70;;;6.60;99.90;;;;;;4944611;28;20743;-67
2023/01/30 12:32:02;;;;;;;6.23;1.40;;;6.70;99.90;;;;;;4970889;28;20207;-67
2023/01/30 12:34:29;;;;;;;10.57;1.97;;;6.70;99.90;;;;;;4968341;28;20202;-67
2023/01/30 12:37:07;;;;;;;6.90;1.60;;;6.70;99.90;;;;;;4948127;28;20227;-67
2023/01/30 12:39:48;;;;;;;6.67;1.93;;;6.70;99.90;;;;;;4972028;28;20267;-66
2023/01/30 12:42:33;;;;;;;11.13;2.00;;;6.90;99.90;;;;;;4958808;28;20236;-67
2023/01/30 12:45:12;;;;;;;5.83;1.30;;;6.90;99.90;;;;;;4946472;28;20227;-66
2023/01/30 12:48:11;;;;;;;5.93;1.90;;;7.00;99.90;;;;;;4982815;28;20614;-66
2023/01/30 12:50:54;;;;;;;10.67;2.20;;;7.00;99.90;;;;;;4935497;28;20222;-66
2023/01/30 12:53:36;;;;;;;6.87;2.03;;;7.00;99.90;;;;;;4973316;28;20231;-66
2023/01/30 12:56:32;;;;;;;17.03;1.90;;;7.00;99.90;;;;;;4974624;28;20689;-66
2023/01/30 12:59:04;;;;;;;13.13;1.93;;;7.00;99.90;;;;;;4972124;28;20345;-66
2023/01/30 13:01:37;;;;;;;17.47;2.60;;;7.00;99.90;;;;;;4962063;28;20580;-67
2023/01/30 13:04:14;;;;;;;13.87;3.23;;;7.00;99.90;;;;;;4973673;28;20685;-67
2023/01/30 13:07:01;;;;;;;9.93;2.77;;;7.00;99.90;;;;;;4940548;28;27377;-66
2023/01/30 13:09:49;;;;;;;11.93;2.27;;;7.10;99.90;;;;;;4981504;28;20290;-66
2023/01/30 13:12:26;;;;;;;7.73;2.07;;;7.00;99.90;;;;;;4968573;28;20203;-68
2023/01/30 13:14:59;;;;;;;12.13;2.37;;;7.00;99.90;;;;;;4967633;28;20239;-67